createdAt,value
2022-12-08T04:00:49.791Z,5.10
2022-12-08T04:03:17.653Z,5.10
2022-12-08T04:05:45.540Z,5.20
2022-12-08T04:08:13.469Z,5.20
2022-12-08T04:10:41.421Z,5.20
2022-12-08T04:13:09.296Z,5.30
2022-12-08T04:15:37.178Z,5.30
2022-12-08T04:18:06.552Z,5.20
2022-12-08T04:20:34.470Z,5.20
2022-12-08T04:23:02.303Z,5.20
2022-12-08T04:25:30.458Z,5.20
2022-12-08T04:27:58.371Z,5.20
2022-12-08T04:30:26.348Z,5.30
2022-12-08T04:32:54.193Z,5.20
2022-12-08T04:35:23.518Z,5.20
2022-12-08T04:37:51.770Z,5.30
2022-12-08T04:40:19.942Z,5.30
2022-12-08T04:42:47.831Z,5.30
2022-12-08T04:45:15.921Z,5.30
2022-12-08T04:47:44.146Z,5.30
2022-12-08T04:50:13.401Z,5.30
2022-12-08T04:52:42.600Z,5.30
2022-12-08T04:55:11.137Z,5.30
2022-12-08T04:57:40.041Z,5.40
2022-12-08T05:00:09.158Z,5.40
2022-12-08T05:02:37.540Z,5.40
2022-12-08T05:05:06.096Z,5.40
2022-12-08T05:07:34.165Z,5.40
2022-12-08T05:10:03.815Z,5.40
2022-12-08T05:12:31.893Z,5.30
2022-12-08T05:14:59.735Z,5.30
2022-12-08T05:17:27.646Z,5.30
2022-12-08T05:19:55.480Z,5.30
2022-12-08T05:22:23.332Z,5.30
2022-12-08T05:24:51.181Z,5.30
2022-12-08T05:27:20.393Z,5.30
2022-12-08T05:29:48.330Z,5.30
2022-12-08T05:32:16.318Z,5.20
2022-12-08T05:34:44.537Z,5.20
2022-12-08T05:37:12.422Z,5.20
2022-12-08T05:39:40.342Z,5.20
2022-12-08T05:42:08.199Z,5.10
2022-12-08T05:44:37.586Z,5.10
2022-12-08T05:47:05.565Z,5.10
2022-12-08T05:49:33.532Z,5.10
2022-12-08T05:52:01.409Z,5.00
2022-12-08T05:54:29.317Z,5.00
2022-12-08T05:56:58.334Z,5.00
2022-12-08T05:59:26.159Z,4.90
2022-12-08T06:01:55.551Z,4.90
2022-12-08T06:04:23.518Z,4.80
2022-12-08T06:06:51.434Z,4.80
2022-12-08T06:09:19.297Z,4.80
2022-12-08T06:11:47.408Z,4.80
2022-12-08T06:14:15.331Z,4.80
2022-12-08T06:16:43.255Z,4.80
2022-12-08T06:19:12.478Z,4.80
2022-12-08T06:21:40.330Z,4.80
2022-12-08T06:24:08.657Z,4.80
2022-12-08T06:26:36.847Z,4.90
2022-12-08T06:29:05.001Z,4.90
2022-12-08T06:31:32.927Z,4.90
2022-12-08T06:34:00.830Z,4.90
2022-12-08T06:36:30.457Z,4.90
2022-12-08T06:38:58.812Z,4.90
2022-12-08T06:41:26.886Z,4.90
2022-12-08T06:43:57.128Z,4.90
2022-12-08T06:46:25.303Z,4.80
2022-12-08T06:48:53.230Z,4.90
2022-12-08T06:51:22.826Z,4.90
2022-12-08T06:53:52.058Z,4.90
2022-12-08T06:56:20.456Z,4.90
2022-12-08T06:58:52.395Z,5.00
2022-12-08T07:01:20.576Z,4.90
2022-12-08T07:03:48.816Z,5.00
2022-12-08T07:06:19.589Z,4.90
2022-12-08T07:08:47.597Z,4.90
2022-12-08T07:11:21.432Z,5.00
2022-12-08T07:13:50.379Z,5.00
2022-12-08T07:16:18.302Z,5.00
2022-12-08T07:18:46.293Z,5.00
2022-12-08T07:21:15.784Z,5.00
2022-12-08T07:23:44.283Z,5.10
2022-12-08T07:26:13.412Z,5.10
2022-12-08T07:28:43.211Z,5.10
2022-12-08T07:31:19.070Z,5.10
2022-12-08T07:33:47.206Z,5.20
2022-12-08T07:36:15.123Z,5.20
2022-12-08T07:38:44.165Z,5.20
2022-12-08T07:41:15.222Z,5.10
2022-12-08T07:43:45.217Z,5.20
2022-12-08T07:46:14.067Z,5.20
2022-12-08T07:48:42.165Z,5.10
2022-12-08T07:51:11.871Z,5.20
2022-12-08T07:53:42.744Z,5.20
2022-12-08T07:56:12.178Z,5.20
2022-12-08T07:58:40.556Z,5.20
2022-12-08T08:01:20.562Z,5.20
2022-12-08T08:03:48.682Z,5.20
2022-12-08T08:06:16.774Z,5.30
2022-12-08T08:08:44.647Z,5.30
2022-12-08T08:11:19.027Z,5.30
2022-12-08T08:13:48.796Z,5.40
2022-12-08T08:16:19.081Z,5.40
2022-12-08T08:18:48.824Z,5.40
2022-12-08T08:21:43.865Z,5.40
2022-12-08T08:24:05.042Z,5.50
2022-12-08T08:26:32.907Z,5.50
2022-12-08T08:29:00.782Z,5.50
2022-12-08T08:31:30.047Z,5.60
2022-12-08T08:33:58.363Z,5.70
2022-12-08T08:36:26.201Z,5.70
2022-12-08T08:38:54.050Z,5.60
2022-12-08T08:41:21.864Z,5.60
2022-12-08T08:43:49.709Z,5.60
2022-12-08T08:46:17.644Z,5.70
2022-12-08T08:48:46.865Z,5.70
2022-12-08T08:51:15.786Z,5.60
2022-12-08T08:53:45.580Z,5.60
2022-12-08T08:56:15.051Z,5.60
2022-12-08T08:58:44.998Z,5.70
2022-12-08T09:01:16.699Z,5.70
2022-12-08T09:03:46.809Z,5.70
2022-12-08T09:06:15.817Z,5.70
2022-12-08T09:08:44.753Z,5.70
2022-12-08T09:11:12.668Z,5.80
2022-12-08T09:13:40.714Z,5.90
2022-12-08T09:16:09.757Z,5.90
2022-12-08T09:18:38.739Z,6.00
2022-12-08T09:21:11.498Z,6.00
2022-12-08T09:23:39.567Z,6.00
2022-12-08T09:26:08.627Z,6.00
2022-12-08T09:28:36.631Z,6.00
2022-12-08T09:31:05.017Z,6.00
2022-12-08T09:33:34.714Z,6.10
2022-12-08T09:36:04.182Z,6.10
2022-12-08T09:38:37.684Z,6.10
2022-12-08T09:41:16.676Z,6.20
2022-12-08T09:44:04.126Z,6.20
2022-12-08T09:46:34.783Z,6.30
2022-12-08T09:49:04.271Z,6.30
2022-12-08T09:51:36.418Z,6.30
2022-12-08T09:54:09.571Z,6.30
2022-12-08T09:56:39.199Z,6.20
2022-12-08T09:59:21.921Z,6.30
2022-12-08T10:01:50.243Z,6.30
2022-12-08T10:04:32.277Z,6.30
2022-12-08T10:07:07.605Z,6.40
2022-12-08T10:09:42.808Z,6.30
2022-12-08T10:12:19.605Z,6.30
2022-12-08T10:14:53.382Z,6.40
2022-12-08T10:17:26.466Z,6.50
2022-12-08T10:20:00.285Z,6.50
2022-12-08T10:22:35.900Z,6.50
2022-12-08T10:25:16.298Z,6.50
2022-12-08T10:27:44.208Z,6.50
2022-12-08T10:30:13.833Z,6.50
2022-12-08T10:32:44.351Z,6.50
2022-12-08T10:35:14.153Z,6.50
2022-12-08T10:37:42.383Z,6.50
2022-12-08T10:40:15.006Z,6.40
2022-12-08T10:42:47.047Z,6.50
2022-12-08T10:45:27.074Z,6.50
2022-12-08T10:48:03.083Z,6.40
2022-12-08T10:50:34.380Z,6.50
2022-12-08T10:53:12.445Z,6.50
2022-12-08T10:55:49.712Z,6.50
2022-12-08T10:58:30.199Z,6.50
2022-12-08T11:01:03.036Z,6.60
2022-12-08T11:03:36.282Z,6.60
2022-12-08T11:06:13.790Z,6.60
2022-12-08T11:08:50.925Z,6.60
2022-12-08T11:11:27.528Z,6.60
2022-12-08T11:13:58.494Z,6.60
2022-12-08T11:16:26.449Z,6.60
2022-12-08T11:18:58.346Z,6.60
2022-12-08T11:21:37.244Z,6.60
2022-12-08T11:24:25.482Z,6.60
2022-12-08T11:27:00.208Z,6.60
2022-12-08T11:29:29.108Z,6.60
2022-12-08T11:32:01.593Z,6.70
2022-12-08T11:34:35.616Z,6.60
2022-12-08T11:37:05.978Z,6.70
2022-12-08T11:39:36.762Z,6.70
2022-12-08T11:42:09.220Z,6.70
2022-12-08T11:44:40.498Z,6.70
2022-12-08T11:47:15.097Z,6.70
2022-12-08T11:49:44.220Z,6.70
2022-12-08T11:52:20.659Z,6.80
2022-12-08T11:54:53.081Z,6.70
2022-12-08T11:57:25.179Z,6.70
2022-12-08T11:59:55.672Z,6.70
2022-12-08T12:02:26.775Z,6.70
2022-12-08T12:04:58.966Z,6.70
2022-12-08T12:07:49.414Z,6.60
2022-12-08T12:10:42.053Z,6.60
2022-12-08T12:13:22.900Z,6.60
2022-12-08T12:16:25.596Z,6.60
2022-12-08T12:18:57.087Z,6.60
2022-12-08T12:21:29.239Z,6.60
2022-12-08T12:24:00.915Z,6.70
2022-12-08T12:26:31.894Z,6.80
2022-12-08T12:29:05.568Z,6.80
2022-12-08T12:31:37.971Z,7.00
2022-12-08T12:34:11.896Z,7.20
2022-12-08T12:36:49.212Z,7.30
2022-12-08T12:39:22.852Z,7.30
2022-12-08T12:41:54.840Z,7.30
2022-12-08T12:44:43.118Z,7.40
2022-12-08T12:47:14.909Z,7.50
2022-12-08T12:50:08.644Z,7.40
2022-12-08T12:52:54.465Z,7.50
2022-12-08T12:55:25.340Z,7.40
2022-12-08T12:57:55.042Z,7.30
2022-12-08T13:00:25.747Z,7.30
2022-12-08T13:02:55.238Z,7.20
2022-12-08T13:05:27.188Z,7.30
2022-12-08T13:07:57.472Z,7.40
2022-12-08T13:10:30.173Z,7.40
2022-12-08T13:13:08.816Z,7.50
2022-12-08T13:15:40.229Z,7.60
2022-12-08T13:18:19.824Z,7.50
2022-12-08T13:20:52.005Z,7.50
2022-12-08T13:23:29.153Z,7.50
2022-12-08T13:26:18.760Z,7.50
2022-12-08T13:29:17.893Z,7.50
2022-12-08T13:31:51.418Z,7.60
2022-12-08T13:34:30.992Z,7.50
2022-12-08T13:37:18.742Z,7.50
2022-12-08T13:39:51.995Z,7.40
2022-12-08T13:42:25.957Z,7.40
2022-12-08T13:48:23.538Z,7.20
2022-12-08T13:52:59.901Z,7.20
2022-12-08T13:57:02.775Z,7.30
2022-12-08T13:59:30.599Z,7.40
2022-12-08T14:02:00.353Z,7.30
2022-12-08T14:07:17.969Z,7.40
2022-12-08T14:09:47.025Z,7.40
2022-12-08T14:12:20.412Z,7.30
2022-12-08T14:15:14.769Z,7.30
2022-12-08T14:17:41.108Z,7.20
2022-12-08T14:20:21.526Z,7.30
2022-12-08T14:22:50.291Z,7.30
2022-12-08T14:25:19.805Z,7.20
2022-12-08T14:27:48.609Z,7.30
2022-12-08T14:30:28.687Z,7.20
2022-12-08T14:32:59.259Z,7.10
2022-12-08T14:35:30.286Z,7.10
2022-12-08T14:38:01.297Z,7.10
2022-12-08T14:40:33.580Z,7.10
2022-12-08T14:43:19.124Z,7.10
2022-12-08T14:45:53.270Z,7.00
2022-12-08T14:48:22.740Z,7.00
2022-12-08T14:51:05.029Z,7.00
2022-12-08T14:53:40.507Z,7.00
2022-12-08T14:56:14.928Z,7.00
2022-12-08T14:58:43.129Z,6.80
2022-12-08T15:01:16.892Z,6.80
2022-12-08T15:03:50.758Z,6.90
2022-12-08T15:06:22.131Z,6.80
2022-12-08T15:08:58.532Z,6.80
2022-12-08T15:11:32.961Z,6.80
2022-12-08T15:14:01.080Z,6.70
2022-12-08T15:16:32.822Z,6.80
2022-12-08T15:19:16.517Z,6.80
2022-12-08T15:21:47.794Z,6.70
2022-12-08T15:24:16.677Z,6.70
2022-12-08T15:26:47.186Z,6.70
2022-12-08T15:29:21.770Z,6.70
2022-12-08T15:31:50.453Z,6.60
2022-12-08T15:34:18.580Z,6.50
2022-12-08T15:36:48.622Z,6.50
2022-12-08T15:39:31.126Z,6.40
2022-12-08T15:41:59.533Z,6.30
2022-12-08T15:44:29.139Z,6.10
2022-12-08T15:46:57.476Z,5.90
2022-12-08T15:49:25.723Z,5.80
2022-12-08T15:52:05.047Z,5.60
2022-12-08T15:54:38.984Z,5.40
2022-12-08T15:57:22.187Z,5.30
2022-12-08T16:00:05.158Z,5.20
2022-12-08T16:03:05.027Z,5.10
2022-12-08T16:05:42.857Z,5.10
2022-12-08T16:08:38.176Z,5.10
2022-12-08T16:11:56.678Z,5.10
2022-12-08T16:14:33.874Z,5.10
2022-12-08T16:16:53.689Z,5.10
2022-12-08T16:19:21.553Z,5.20
2022-12-08T16:22:30.359Z,5.20
2022-12-08T16:24:39.728Z,5.30
2022-12-08T16:27:59.361Z,5.30
2022-12-08T16:30:16.219Z,5.30
2022-12-08T16:32:44.165Z,5.40
2022-12-08T16:35:13.241Z,5.40
2022-12-08T16:37:41.675Z,5.40
2022-12-08T16:40:13.090Z,5.40
2022-12-08T16:42:40.135Z,5.40
2022-12-08T16:45:11.278Z,5.40
2022-12-08T16:47:40.271Z,5.40
2022-12-08T16:50:10.417Z,5.40
2022-12-08T16:52:38.511Z,5.40
2022-12-08T16:55:10.817Z,5.50
2022-12-08T16:57:38.947Z,5.40
2022-12-08T17:00:09.980Z,5.40
2022-12-08T17:02:38.060Z,5.30
2022-12-08T17:05:06.572Z,5.30
2022-12-08T17:07:35.992Z,5.30
2022-12-08T17:10:06.292Z,5.30
2022-12-08T17:12:36.155Z,5.30
2022-12-08T17:15:05.368Z,5.30
2022-12-08T17:17:35.247Z,5.30
2022-12-08T17:20:04.821Z,5.30
2022-12-08T17:22:33.481Z,5.30
2022-12-08T17:25:02.273Z,5.20
2022-12-08T17:27:30.198Z,5.30
2022-12-08T17:29:59.375Z,5.30
2022-12-08T17:32:27.344Z,5.40
2022-12-08T17:34:55.443Z,5.40
2022-12-08T17:37:23.304Z,5.40
2022-12-08T17:39:51.216Z,5.40
2022-12-08T17:42:19.174Z,5.40
2022-12-08T17:44:47.088Z,5.40
2022-12-08T17:47:16.283Z,5.40
2022-12-08T17:49:44.131Z,5.50
2022-12-08T17:52:12.495Z,5.50
2022-12-08T17:54:40.369Z,5.50
2022-12-08T17:57:08.208Z,5.40
2022-12-08T17:59:36.635Z,5.50
2022-12-08T18:02:06.037Z,5.50
2022-12-08T18:04:38.294Z,5.50
2022-12-08T18:07:06.412Z,5.40
2022-12-08T18:09:34.521Z,5.40
2022-12-08T18:12:02.433Z,5.40
2022-12-08T18:14:30.339Z,5.40
2022-12-08T18:16:58.243Z,5.40
2022-12-08T18:19:26.261Z,5.40
2022-12-08T18:21:55.457Z,5.40
2022-12-08T18:24:24.261Z,5.40
2022-12-08T18:26:52.792Z,5.40
2022-12-08T18:29:21.430Z,5.40
2022-12-08T18:31:50.940Z,5.40
2022-12-08T18:34:18.950Z,5.40
2022-12-08T18:36:47.067Z,5.30
2022-12-08T18:39:24.357Z,5.30
2022-12-08T18:41:52.920Z,5.30
2022-12-08T18:44:21.052Z,5.30
2022-12-08T18:46:49.223Z,5.20
2022-12-08T18:49:18.845Z,5.20
2022-12-08T18:51:47.198Z,5.30
2022-12-08T18:54:15.525Z,5.30
2022-12-08T18:56:47.879Z,5.30
2022-12-08T18:59:15.902Z,5.20
2022-12-08T19:01:43.818Z,5.30
2022-12-08T19:04:28.695Z,5.30
2022-12-08T19:06:58.049Z,5.20
2022-12-08T19:09:26.682Z,5.30
2022-12-08T19:11:56.823Z,5.30
2022-12-08T19:14:28.719Z,5.40
2022-12-08T19:16:57.290Z,5.40
2022-12-08T19:19:25.277Z,5.40
2022-12-08T19:21:53.299Z,5.30
2022-12-08T19:24:21.315Z,5.40
2022-12-08T19:26:49.342Z,5.30
2022-12-08T19:29:18.656Z,5.30
2022-12-08T19:31:47.293Z,5.30
2022-12-08T19:34:15.678Z,5.20
2022-12-08T19:36:43.954Z,5.20
2022-12-08T19:39:29.975Z,5.30
2022-12-08T19:42:15.159Z,5.30
2022-12-08T19:44:56.205Z,5.30
2022-12-08T19:47:26.135Z,5.30
2022-12-08T19:50:15.599Z,5.30
2022-12-08T19:52:43.563Z,5.30
2022-12-08T19:55:11.774Z,5.30
2022-12-08T19:57:39.670Z,5.30
2022-12-08T20:00:12.594Z,5.30
2022-12-08T20:02:40.645Z,5.30
2022-12-08T20:05:12.106Z,5.20
2022-12-08T20:07:40.510Z,5.20
2022-12-08T20:10:12.932Z,5.20
2022-12-08T20:12:40.919Z,5.20
2022-12-08T20:15:11.508Z,5.30
2022-12-08T20:17:41.849Z,5.20
2022-12-08T20:20:11.267Z,5.30
2022-12-08T20:22:39.704Z,5.20
2022-12-08T20:25:12.820Z,5.20
2022-12-08T20:27:41.758Z,5.20
2022-12-08T20:30:17.261Z,5.20
2022-12-08T20:32:45.599Z,5.10
2022-12-08T20:35:13.718Z,5.10
2022-12-08T20:37:41.913Z,5.10
2022-12-08T20:40:13.124Z,5.10
2022-12-08T20:42:41.156Z,5.10
2022-12-08T20:45:11.926Z,5.10
2022-12-08T20:47:40.221Z,5.10
2022-12-08T20:50:11.610Z,5.10
2022-12-08T20:52:40.269Z,5.10
2022-12-08T20:55:09.611Z,5.20
2022-12-08T20:57:37.689Z,5.20
2022-12-08T21:00:07.022Z,5.20
2022-12-08T21:02:43.296Z,5.20
2022-12-08T21:05:14.932Z,5.20
2022-12-08T21:07:43.185Z,5.10
2022-12-08T21:10:12.010Z,5.10
2022-12-08T21:12:40.552Z,5.10
2022-12-08T21:15:11.412Z,5.10
2022-12-08T21:17:40.996Z,5.10
2022-12-08T21:20:10.255Z,5.00
2022-12-08T21:22:40.911Z,5.10
2022-12-08T21:25:09.899Z,5.10
2022-12-08T21:27:39.159Z,5.10
2022-12-08T21:30:09.059Z,5.10
2022-12-08T21:32:40.216Z,5.10
2022-12-08T21:35:09.663Z,5.10
2022-12-08T21:37:37.724Z,5.10
2022-12-08T21:40:08.052Z,5.10
2022-12-08T21:42:45.777Z,5.20
2022-12-08T21:45:16.296Z,5.20
2022-12-08T21:47:46.522Z,5.20
2022-12-08T21:50:15.819Z,5.20
2022-12-08T21:52:46.262Z,5.20
2022-12-08T21:55:15.755Z,5.20
2022-12-08T21:57:44.178Z,5.20
2022-12-08T22:00:16.227Z,5.20
2022-12-08T22:02:47.008Z,5.30
2022-12-08T22:05:15.289Z,5.20
2022-12-08T22:07:43.673Z,5.30
2022-12-08T22:10:12.314Z,5.30
2022-12-08T22:12:40.816Z,5.30
2022-12-08T22:15:10.619Z,5.30
2022-12-08T22:17:40.007Z,5.30
2022-12-08T22:20:12.772Z,5.30
2022-12-08T22:22:41.913Z,5.20
2022-12-08T22:25:12.581Z,5.30
2022-12-08T22:27:41.741Z,5.20
2022-12-08T22:30:11.901Z,5.20
2022-12-08T22:32:40.314Z,5.20
2022-12-08T22:35:10.639Z,5.20
2022-12-08T22:37:38.730Z,5.20
2022-12-08T22:40:08.383Z,5.20
2022-12-08T22:42:36.955Z,5.20
2022-12-08T22:45:05.612Z,5.20
2022-12-08T22:47:33.884Z,5.20
2022-12-08T22:50:02.476Z,5.20
2022-12-08T22:52:32.115Z,5.30
2022-12-08T22:55:00.235Z,5.20
2022-12-08T22:57:29.339Z,5.20
2022-12-08T22:59:57.239Z,5.20
